sensor_id;sensor_type;location;lat;lon;timestamp;temperature;humidity
70068;DHT22;57425;51.616;6.680;2023-10-08T00:02:26;19.90;76.40
70068;DHT22;57425;51.616;6.680;2023-10-08T00:04:53;20.00;76.40
70068;DHT22;57425;51.616;6.680;2023-10-08T00:07:20;19.90;76.30
70068;DHT22;57425;51.616;6.680;2023-10-08T00:09:50;19.90;76.30
70068;DHT22;57425;51.616;6.680;2023-10-08T00:12:21;19.90;76.30
70068;DHT22;57425;51.616;6.680;2023-10-08T00:14:48;20.00;76.30
70068;DHT22;57425;51.616;6.680;2023-10-08T00:17:18;19.90;76.30
70068;DHT22;57425;51.616;6.680;2023-10-08T00:19:44;19.90;76.30
70068;DHT22;57425;51.616;6.680;2023-10-08T00:22:11;19.90;76.20
70068;DHT22;57425;51.616;6.680;2023-10-08T00:24:39;19.90;76.20
70068;DHT22;57425;51.616;6.680;2023-10-08T00:27:07;19.90;76.20
70068;DHT22;57425;51.616;6.680;2023-10-08T00:29:33;19.90;76.20
70068;DHT22;57425;51.616;6.680;2023-10-08T00:31:59;19.90;76.20
70068;DHT22;57425;51.616;6.680;2023-10-08T00:34:25;19.90;76.80
70068;DHT22;57425;51.616;6.680;2023-10-08T00:36:52;19.90;76.20
70068;DHT22;57425;51.616;6.680;2023-10-08T00:39:18;19.90;76.20
70068;DHT22;57425;51.616;6.680;2023-10-08T00:41:51;19.90;76.20
70068;DHT22;57425;51.616;6.680;2023-10-08T00:44:23;19.90;76.20
70068;DHT22;57425;51.616;6.680;2023-10-08T00:46:55;19.90;76.20
70068;DHT22;57425;51.616;6.680;2023-10-08T00:49:23;19.90;76.20
70068;DHT22;57425;51.616;6.680;2023-10-08T00:52:04;19.90;76.10
70068;DHT22;57425;51.616;6.680;2023-10-08T00:54:37;19.80;76.60
70068;DHT22;57425;51.616;6.680;2023-10-08T00:57:23;19.80;76.00
70068;DHT22;57425;51.616;6.680;2023-10-08T00:59:51;19.80;76.00
70068;DHT22;57425;51.616;6.680;2023-10-08T01:02:21;19.80;76.00
70068;DHT22;57425;51.616;6.680;2023-10-08T01:04:52;19.80;76.00
70068;DHT22;57425;51.616;6.680;2023-10-08T01:07:20;19.80;76.00
70068;DHT22;57425;51.616;6.680;2023-10-08T01:09:46;19.80;76.00
70068;DHT22;57425;51.616;6.680;2023-10-08T01:12:24;19.80;76.00
70068;DHT22;57425;51.616;6.680;2023-10-08T01:14:58;19.80;76.00
70068;DHT22;57425;51.616;6.680;2023-10-08T01:17:42;19.80;76.00
70068;DHT22;57425;51.616;6.680;2023-10-08T01:20:23;19.80;76.00
70068;DHT22;57425;51.616;6.680;2023-10-08T01:23:08;19.70;75.90
70068;DHT22;57425;51.616;6.680;2023-10-08T01:25:45;19.70;75.90
70068;DHT22;57425;51.616;6.680;2023-10-08T01:28:17;19.70;75.90
70068;DHT22;57425;51.616;6.680;2023-10-08T01:30:56;19.70;75.80
70068;DHT22;57425;51.616;6.680;2023-10-08T01:33:26;19.70;75.90
70068;DHT22;57425;51.616;6.680;2023-10-08T01:35:57;19.70;75.90
70068;DHT22;57425;51.616;6.680;2023-10-08T01:38:29;19.70;75.80
70068;DHT22;57425;51.616;6.680;2023-10-08T01:40:54;19.70;75.80
70068;DHT22;57425;51.616;6.680;2023-10-08T01:43:22;19.70;75.80
70068;DHT22;57425;51.616;6.680;2023-10-08T01:45:47;19.70;75.70
70068;DHT22;57425;51.616;6.680;2023-10-08T01:48:17;19.70;75.70
70068;DHT22;57425;51.616;6.680;2023-10-08T01:50:46;19.70;75.70
70068;DHT22;57425;51.616;6.680;2023-10-08T01:53:14;19.70;75.70
70068;DHT22;57425;51.616;6.680;2023-10-08T01:55:41;19.70;75.70
70068;DHT22;57425;51.616;6.680;2023-10-08T01:58:18;19.70;75.60
70068;DHT22;57425;51.616;6.680;2023-10-08T02:00:45;19.70;75.50
70068;DHT22;57425;51.616;6.680;2023-10-08T02:03:14;19.70;75.50
70068;DHT22;57425;51.616;6.680;2023-10-08T02:05:42;19.60;75.40
70068;DHT22;57425;51.616;6.680;2023-10-08T02:08:11;19.60;75.40
70068;DHT22;57425;51.616;6.680;2023-10-08T02:10:42;19.60;75.50
70068;DHT22;57425;51.616;6.680;2023-10-08T02:13:19;19.60;75.40
70068;DHT22;57425;51.616;6.680;2023-10-08T02:15:51;19.60;75.40
70068;DHT22;57425;51.616;6.680;2023-10-08T02:18:18;19.60;75.40
70068;DHT22;57425;51.616;6.680;2023-10-08T02:20:44;19.60;75.30
70068;DHT22;57425;51.616;6.680;2023-10-08T02:23:09;19.60;75.30
70068;DHT22;57425;51.616;6.680;2023-10-08T02:25:41;19.60;75.30
70068;DHT22;57425;51.616;6.680;2023-10-08T02:28:07;19.60;75.20
70068;DHT22;57425;51.616;6.680;2023-10-08T02:30:41;19.60;75.20
70068;DHT22;57425;51.616;6.680;2023-10-08T02:33:07;19.60;75.20
70068;DHT22;57425;51.616;6.680;2023-10-08T02:35:43;19.60;75.20
70068;DHT22;57425;51.616;6.680;2023-10-08T02:38:11;19.60;75.10
70068;DHT22;57425;51.616;6.680;2023-10-08T02:40:38;19.60;75.10
70068;DHT22;57425;51.616;6.680;2023-10-08T02:43:10;19.60;75.10
70068;DHT22;57425;51.616;6.680;2023-10-08T02:45:37;19.60;75.10
70068;DHT22;57425;51.616;6.680;2023-10-08T02:48:05;19.50;75.10
70068;DHT22;57425;51.616;6.680;2023-10-08T02:50:38;19.50;75.10
70068;DHT22;57425;51.616;6.680;2023-10-08T02:53:05;19.50;75.00
70068;DHT22;57425;51.616;6.680;2023-10-08T02:55:35;19.50;75.00
70068;DHT22;57425;51.616;6.680;2023-10-08T02:58:02;19.50;74.90
70068;DHT22;57425;51.616;6.680;2023-10-08T03:00:31;19.60;74.90
70068;DHT22;57425;51.616;6.680;2023-10-08T03:03:00;19.60;75.00
70068;DHT22;57425;51.616;6.680;2023-10-08T03:05:27;19.50;75.00
70068;DHT22;57425;51.616;6.680;2023-10-08T03:07:56;19.50;75.00
70068;DHT22;57425;51.616;6.680;2023-10-08T03:10:24;19.50;75.00
70068;DHT22;57425;51.616;6.680;2023-10-08T03:12:57;19.50;75.00
70068;DHT22;57425;51.616;6.680;2023-10-08T03:15:30;19.50;75.00
70068;DHT22;57425;51.616;6.680;2023-10-08T03:17:59;19.50;74.90
70068;DHT22;57425;51.616;6.680;2023-10-08T03:20:35;19.50;74.90
70068;DHT22;57425;51.616;6.680;2023-10-08T03:23:13;19.50;75.40
70068;DHT22;57425;51.616;6.680;2023-10-08T03:25:53;19.50;74.80
70068;DHT22;57425;51.616;6.680;2023-10-08T03:28:42;19.50;74.90
70068;DHT22;57425;51.616;6.680;2023-10-08T03:31:08;19.50;74.70
70068;DHT22;57425;51.616;6.680;2023-10-08T03:33:42;19.50;74.70
70068;DHT22;57425;51.616;6.680;2023-10-08T03:36:09;19.50;74.60
70068;DHT22;57425;51.616;6.680;2023-10-08T03:38:46;19.50;74.50
70068;DHT22;57425;51.616;6.680;2023-10-08T03:41:23;19.50;74.50
70068;DHT22;57425;51.616;6.680;2023-10-08T03:43:58;19.50;74.50
70068;DHT22;57425;51.616;6.680;2023-10-08T03:46:38;19.50;74.60
70068;DHT22;57425;51.616;6.680;2023-10-08T03:49:15;19.50;75.20
70068;DHT22;57425;51.616;6.680;2023-10-08T03:51:53;19.50;74.60
70068;DHT22;57425;51.616;6.680;2023-10-08T03:54:20;19.50;74.50
70068;DHT22;57425;51.616;6.680;2023-10-08T03:56:55;19.40;74.50
70068;DHT22;57425;51.616;6.680;2023-10-08T03:59:21;19.40;74.50
70068;DHT22;57425;51.616;6.680;2023-10-08T04:02:00;19.40;74.40
70068;DHT22;57425;51.616;6.680;2023-10-08T04:04:39;19.40;74.30
70068;DHT22;57425;51.616;6.680;2023-10-08T04:07:24;19.40;74.30
70068;DHT22;57425;51.616;6.680;2023-10-08T04:10:00;19.40;74.30
70068;DHT22;57425;51.616;6.680;2023-10-08T04:12:35;19.40;74.40
70068;DHT22;57425;51.616;6.680;2023-10-08T04:15:05;19.40;74.40
70068;DHT22;57425;51.616;6.680;2023-10-08T04:17:33;19.40;74.30
70068;DHT22;57425;51.616;6.680;2023-10-08T04:20:10;19.40;74.30
70068;DHT22;57425;51.616;6.680;2023-10-08T04:22:56;19.40;74.20
70068;DHT22;57425;51.616;6.680;2023-10-08T04:25:28;19.40;74.30
70068;DHT22;57425;51.616;6.680;2023-10-08T04:27:58;19.40;74.30
70068;DHT22;57425;51.616;6.680;2023-10-08T04:30:32;19.40;74.20
70068;DHT22;57425;51.616;6.680;2023-10-08T04:33:02;19.30;74.10
70068;DHT22;57425;51.616;6.680;2023-10-08T04:35:35;19.30;74.00
70068;DHT22;57425;51.616;6.680;2023-10-08T04:38:27;19.40;74.10
70068;DHT22;57425;51.616;6.680;2023-10-08T04:40:54;19.30;74.00
70068;DHT22;57425;51.616;6.680;2023-10-08T04:43:22;19.30;74.10
70068;DHT22;57425;51.616;6.680;2023-10-08T04:46:11;19.30;74.00
70068;DHT22;57425;51.616;6.680;2023-10-08T04:48:55;19.30;74.00
70068;DHT22;57425;51.616;6.680;2023-10-08T04:51:23;19.30;74.10
70068;DHT22;57425;51.616;6.680;2023-10-08T04:53:50;19.30;74.00
70068;DHT22;57425;51.616;6.680;2023-10-08T04:56:16;19.30;74.10
70068;DHT22;57425;51.616;6.680;2023-10-08T04:58:46;19.30;74.10
70068;DHT22;57425;51.616;6.680;2023-10-08T05:01:15;19.30;74.00
70068;DHT22;57425;51.616;6.680;2023-10-08T05:03:56;19.30;74.00
70068;DHT22;57425;51.616;6.680;2023-10-08T05:06:26;19.30;74.00
70068;DHT22;57425;51.616;6.680;2023-10-08T05:09:13;19.30;73.90
70068;DHT22;57425;51.616;6.680;2023-10-08T05:11:45;19.30;73.90
70068;DHT22;57425;51.616;6.680;2023-10-08T05:14:23;19.30;73.90
70068;DHT22;57425;51.616;6.680;2023-10-08T05:16:55;19.30;73.90
70068;DHT22;57425;51.616;6.680;2023-10-08T05:19:56;19.20;73.90
70068;DHT22;57425;51.616;6.680;2023-10-08T05:22:34;19.20;74.00
70068;DHT22;57425;51.616;6.680;2023-10-08T05:25:02;19.20;73.90
70068;DHT22;57425;51.616;6.680;2023-10-08T05:27:44;19.20;73.90
70068;DHT22;57425;51.616;6.680;2023-10-08T05:30:21;19.20;73.80
70068;DHT22;57425;51.616;6.680;2023-10-08T05:33:06;19.20;73.80
70068;DHT22;57425;51.616;6.680;2023-10-08T05:35:38;19.20;73.80
70068;DHT22;57425;51.616;6.680;2023-10-08T05:38:08;19.20;74.30
70068;DHT22;57425;51.616;6.680;2023-10-08T05:40:53;19.10;73.70
70068;DHT22;57425;51.616;6.680;2023-10-08T05:43:34;19.10;74.20
70068;DHT22;57425;51.616;6.680;2023-10-08T05:46:13;19.10;73.60
70068;DHT22;57425;51.616;6.680;2023-10-08T05:51:46;19.10;73.70
70068;DHT22;57425;51.616;6.680;2023-10-08T05:54:16;19.10;73.70
70068;DHT22;57425;51.616;6.680;2023-10-08T05:56:59;19.10;73.80
70068;DHT22;57425;51.616;6.680;2023-10-08T05:59:43;19.10;73.80
70068;DHT22;57425;51.616;6.680;2023-10-08T06:02:39;19.10;73.80
70068;DHT22;57425;51.616;6.680;2023-10-08T06:05:20;19.10;73.80
70068;DHT22;57425;51.616;6.680;2023-10-08T06:07:51;19.10;73.70
70068;DHT22;57425;51.616;6.680;2023-10-08T06:10:21;19.10;73.80
70068;DHT22;57425;51.616;6.680;2023-10-08T06:15:45;19.10;73.80
70068;DHT22;57425;51.616;6.680;2023-10-08T06:18:18;19.10;73.80
70068;DHT22;57425;51.616;6.680;2023-10-08T06:20:45;19.10;73.80
70068;DHT22;57425;51.616;6.680;2023-10-08T06:23:14;19.10;73.80
70068;DHT22;57425;51.616;6.680;2023-10-08T06:25:45;19.10;73.70
70068;DHT22;57425;51.616;6.680;2023-10-08T06:28:20;19.10;73.70
70068;DHT22;57425;51.616;6.680;2023-10-08T06:30:50;19.10;73.50
70068;DHT22;57425;51.616;6.680;2023-10-08T06:33:23;19.10;73.50
70068;DHT22;57425;51.616;6.680;2023-10-08T06:35:59;19.10;73.50
70068;DHT22;57425;51.616;6.680;2023-10-08T06:38:32;19.10;73.50
70068;DHT22;57425;51.616;6.680;2023-10-08T06:40:58;19.10;73.40
70068;DHT22;57425;51.616;6.680;2023-10-08T06:43:34;19.10;73.30
70068;DHT22;57425;51.616;6.680;2023-10-08T06:46:02;19.10;73.30
70068;DHT22;57425;51.616;6.680;2023-10-08T06:48:28;19.10;73.20
70068;DHT22;57425;51.616;6.680;2023-10-08T06:50:55;19.10;73.30
70068;DHT22;57425;51.616;6.680;2023-10-08T06:53:22;19.00;73.20
70068;DHT22;57425;51.616;6.680;2023-10-08T06:55:48;19.10;73.20
70068;DHT22;57425;51.616;6.680;2023-10-08T06:58:25;19.10;73.20
70068;DHT22;57425;51.616;6.680;2023-10-08T07:00:52;19.00;73.20
70068;DHT22;57425;51.616;6.680;2023-10-08T07:03:18;19.10;73.30
70068;DHT22;57425;51.616;6.680;2023-10-08T07:05:45;19.00;73.20
70068;DHT22;57425;51.616;6.680;2023-10-08T07:08:21;19.00;73.20
70068;DHT22;57425;51.616;6.680;2023-10-08T07:10:52;19.00;73.20
70068;DHT22;57425;51.616;6.680;2023-10-08T07:13:19;19.00;73.20
70068;DHT22;57425;51.616;6.680;2023-10-08T07:15:51;19.00;73.10
70068;DHT22;57425;51.616;6.680;2023-10-08T07:18:18;19.00;73.10
70068;DHT22;57425;51.616;6.680;2023-10-08T07:21:02;19.00;73.20
70068;DHT22;57425;51.616;6.680;2023-10-08T07:23:37;19.00;73.30
70068;DHT22;57425;51.616;6.680;2023-10-08T07:26:19;19.00;73.40
70068;DHT22;57425;51.616;6.680;2023-10-08T07:28:50;19.00;73.40
70068;DHT22;57425;51.616;6.680;2023-10-08T07:31:21;19.00;73.40
70068;DHT22;57425;51.616;6.680;2023-10-08T07:33:53;19.00;73.40
70068;DHT22;57425;51.616;6.680;2023-10-08T07:36:28;19.00;73.40
70068;DHT22;57425;51.616;6.680;2023-10-08T07:38:56;19.00;74.00
70068;DHT22;57425;51.616;6.680;2023-10-08T07:41:22;19.00;73.50
70068;DHT22;57425;51.616;6.680;2023-10-08T07:43:49;19.00;73.40
70068;DHT22;57425;51.616;6.680;2023-10-08T07:46:27;19.00;73.50
70068;DHT22;57425;51.616;6.680;2023-10-08T07:48:53;19.00;73.40
70068;DHT22;57425;51.616;6.680;2023-10-08T07:51:19;19.00;74.00
70068;DHT22;57425;51.616;6.680;2023-10-08T07:53:50;18.90;73.40
70068;DHT22;57425;51.616;6.680;2023-10-08T07:56:20;18.90;73.40
70068;DHT22;57425;51.616;6.680;2023-10-08T07:58:45;18.90;73.40
70068;DHT22;57425;51.616;6.680;2023-10-08T08:01:12;18.90;73.30
70068;DHT22;57425;51.616;6.680;2023-10-08T08:03:40;18.90;73.30
70068;DHT22;57425;51.616;6.680;2023-10-08T08:06:11;18.90;73.30
70068;DHT22;57425;51.616;6.680;2023-10-08T08:08:37;18.90;73.30
70068;DHT22;57425;51.616;6.680;2023-10-08T08:11:07;18.90;73.30
70068;DHT22;57425;51.616;6.680;2023-10-08T08:13:38;18.90;73.30
70068;DHT22;57425;51.616;6.680;2023-10-08T08:16:04;18.90;73.40
70068;DHT22;57425;51.616;6.680;2023-10-08T08:18:52;18.90;73.40
70068;DHT22;57425;51.616;6.680;2023-10-08T08:21:20;18.90;73.50
70068;DHT22;57425;51.616;6.680;2023-10-08T08:23:49;18.90;73.40
70068;DHT22;57425;51.616;6.680;2023-10-08T08:26:16;18.90;73.40
70068;DHT22;57425;51.616;6.680;2023-10-08T08:29:05;18.90;73.40
70068;DHT22;57425;51.616;6.680;2023-10-08T08:31:35;18.80;73.30
70068;DHT22;57425;51.616;6.680;2023-10-08T08:34:02;18.90;73.50
70068;DHT22;57425;51.616;6.680;2023-10-08T08:36:33;18.80;73.40
70068;DHT22;57425;51.616;6.680;2023-10-08T08:38:59;18.80;73.50
70068;DHT22;57425;51.616;6.680;2023-10-08T08:41:25;18.80;73.50
70068;DHT22;57425;51.616;6.680;2023-10-08T08:43:52;18.80;73.50
70068;DHT22;57425;51.616;6.680;2023-10-08T08:46:30;18.80;73.50
70068;DHT22;57425;51.616;6.680;2023-10-08T08:49:06;18.80;73.50
70068;DHT22;57425;51.616;6.680;2023-10-08T08:51:37;18.80;73.60
70068;DHT22;57425;51.616;6.680;2023-10-08T08:54:04;18.80;73.60
70068;DHT22;57425;51.616;6.680;2023-10-08T08:56:43;18.80;73.60
70068;DHT22;57425;51.616;6.680;2023-10-08T08:59:09;18.80;73.60
70068;DHT22;57425;51.616;6.680;2023-10-08T09:01:40;18.80;73.60
70068;DHT22;57425;51.616;6.680;2023-10-08T09:04:07;18.70;73.60
70068;DHT22;57425;51.616;6.680;2023-10-08T09:06:37;18.80;73.60
70068;DHT22;57425;51.616;6.680;2023-10-08T09:09:07;18.80;73.60
70068;DHT22;57425;51.616;6.680;2023-10-08T09:11:59;18.70;73.60
70068;DHT22;57425;51.616;6.680;2023-10-08T09:14:26;18.70;73.60
70068;DHT22;57425;51.616;6.680;2023-10-08T09:17:00;18.70;73.60
70068;DHT22;57425;51.616;6.680;2023-10-08T09:19:26;18.70;73.50
70068;DHT22;57425;51.616;6.680;2023-10-08T09:22:07;18.70;73.60
70068;DHT22;57425;51.616;6.680;2023-10-08T09:24:37;18.70;73.50
70068;DHT22;57425;51.616;6.680;2023-10-08T09:27:07;18.70;73.50
70068;DHT22;57425;51.616;6.680;2023-10-08T09:29:35;18.70;73.50
70068;DHT22;57425;51.616;6.680;2023-10-08T09:32:07;18.70;73.50
70068;DHT22;57425;51.616;6.680;2023-10-08T09:34:33;18.70;73.50
70068;DHT22;57425;51.616;6.680;2023-10-08T09:37:01;18.70;73.50
70068;DHT22;57425;51.616;6.680;2023-10-08T09:39:27;18.70;73.50
70068;DHT22;57425;51.616;6.680;2023-10-08T09:41:56;18.70;74.10
70068;DHT22;57425;51.616;6.680;2023-10-08T09:44:23;18.70;73.40
70068;DHT22;57425;51.616;6.680;2023-10-08T09:47:03;18.70;73.50
70068;DHT22;57425;51.616;6.680;2023-10-08T09:49:36;18.70;73.50
70068;DHT22;57425;51.616;6.680;2023-10-08T09:52:05;18.60;73.40
70068;DHT22;57425;51.616;6.680;2023-10-08T09:57:06;18.70;73.50
70068;DHT22;57425;51.616;6.680;2023-10-08T09:59:33;18.60;73.40
70068;DHT22;57425;51.616;6.680;2023-10-08T10:01:59;18.70;73.50
70068;DHT22;57425;51.616;6.680;2023-10-08T10:04:26;18.70;73.50
70068;DHT22;57425;51.616;6.680;2023-10-08T10:06:56;18.60;73.40
70068;DHT22;57425;51.616;6.680;2023-10-08T10:09:26;18.60;73.40
70068;DHT22;57425;51.616;6.680;2023-10-08T10:11:53;18.60;73.40
70068;DHT22;57425;51.616;6.680;2023-10-08T10:14:22;18.60;73.50
70068;DHT22;57425;51.616;6.680;2023-10-08T10:16:53;18.60;73.40
70068;DHT22;57425;51.616;6.680;2023-10-08T10:19:30;18.60;73.40
70068;DHT22;57425;51.616;6.680;2023-10-08T10:21:55;18.60;74.00
70068;DHT22;57425;51.616;6.680;2023-10-08T10:24:35;18.60;73.50
70068;DHT22;57425;51.616;6.680;2023-10-08T10:27:20;18.60;73.50
70068;DHT22;57425;51.616;6.680;2023-10-08T10:29:47;18.60;73.40
70068;DHT22;57425;51.616;6.680;2023-10-08T10:32:14;18.60;73.50
70068;DHT22;57425;51.616;6.680;2023-10-08T10:34:44;18.60;73.50
70068;DHT22;57425;51.616;6.680;2023-10-08T10:37:12;18.60;73.60
70068;DHT22;57425;51.616;6.680;2023-10-08T10:39:57;18.60;73.50
70068;DHT22;57425;51.616;6.680;2023-10-08T10:42:26;18.60;73.50
70068;DHT22;57425;51.616;6.680;2023-10-08T10:44:54;18.60;73.50
70068;DHT22;57425;51.616;6.680;2023-10-08T10:47:21;18.60;73.50
70068;DHT22;57425;51.616;6.680;2023-10-08T10:49:51;18.60;73.50
70068;DHT22;57425;51.616;6.680;2023-10-08T10:52:40;18.60;73.50
70068;DHT22;57425;51.616;6.680;2023-10-08T10:55:20;18.60;73.50
70068;DHT22;57425;51.616;6.680;2023-10-08T10:57:57;18.50;73.50
70068;DHT22;57425;51.616;6.680;2023-10-08T11:00:30;18.60;73.60
70068;DHT22;57425;51.616;6.680;2023-10-08T11:03:00;18.50;73.50
70068;DHT22;57425;51.616;6.680;2023-10-08T11:05:32;18.50;73.50
70068;DHT22;57425;51.616;6.680;2023-10-08T11:08:04;18.50;73.50
70068;DHT22;57425;51.616;6.680;2023-10-08T11:10:31;18.50;73.50
70068;DHT22;57425;51.616;6.680;2023-10-08T11:12:58;18.50;73.50
70068;DHT22;57425;51.616;6.680;2023-10-08T11:15:28;18.50;73.50
70068;DHT22;57425;51.616;6.680;2023-10-08T11:18:10;18.50;73.50
70068;DHT22;57425;51.616;6.680;2023-10-08T11:20:36;18.50;74.00
70068;DHT22;57425;51.616;6.680;2023-10-08T11:23:08;18.50;74.10
70068;DHT22;57425;51.616;6.680;2023-10-08T11:26:03;18.50;73.50
70068;DHT22;57425;51.616;6.680;2023-10-08T11:28:33;18.50;73.50
70068;DHT22;57425;51.616;6.680;2023-10-08T11:31:01;18.50;73.50
70068;DHT22;57425;51.616;6.680;2023-10-08T11:33:40;18.50;73.40
70068;DHT22;57425;51.616;6.680;2023-10-08T11:36:07;18.50;73.40
70068;DHT22;57425;51.616;6.680;2023-10-08T11:38:44;18.40;73.50
70068;DHT22;57425;51.616;6.680;2023-10-08T11:41:14;18.50;73.60
70068;DHT22;57425;51.616;6.680;2023-10-08T11:43:51;18.50;73.50
70068;DHT22;57425;51.616;6.680;2023-10-08T11:46:31;18.50;74.10
70068;DHT22;57425;51.616;6.680;2023-10-08T11:49:07;18.50;73.50
70068;DHT22;57425;51.616;6.680;2023-10-08T11:51:37;18.50;73.50
70068;DHT22;57425;51.616;6.680;2023-10-08T11:54:03;18.50;73.50
70068;DHT22;57425;51.616;6.680;2023-10-08T11:56:32;18.50;73.60
70068;DHT22;57425;51.616;6.680;2023-10-08T11:59:01;18.50;73.50
70068;DHT22;57425;51.616;6.680;2023-10-08T12:01:27;18.50;73.50
70068;DHT22;57425;51.616;6.680;2023-10-08T12:03:53;18.50;73.50
70068;DHT22;57425;51.616;6.680;2023-10-08T12:06:25;18.50;73.50
70068;DHT22;57425;51.616;6.680;2023-10-08T12:08:55;18.50;73.50
70068;DHT22;57425;51.616;6.680;2023-10-08T12:11:25;18.50;73.60
70068;DHT22;57425;51.616;6.680;2023-10-08T12:13:57;18.50;73.60
70068;DHT22;57425;51.616;6.680;2023-10-08T12:16:25;18.50;73.60
70068;DHT22;57425;51.616;6.680;2023-10-08T12:18:55;18.50;73.60
70068;DHT22;57425;51.616;6.680;2023-10-08T12:21:28;18.50;74.10
70068;DHT22;57425;51.616;6.680;2023-10-08T12:23:58;18.50;73.50
70068;DHT22;57425;51.616;6.680;2023-10-08T12:26:24;18.50;73.60
70068;DHT22;57425;51.616;6.680;2023-10-08T12:28:50;18.50;73.60
70068;DHT22;57425;51.616;6.680;2023-10-08T12:31:20;18.50;73.60
70068;DHT22;57425;51.616;6.680;2023-10-08T12:33:48;18.60;74.10
70068;DHT22;57425;51.616;6.680;2023-10-08T12:36:14;18.50;73.60
70068;DHT22;57425;51.616;6.680;2023-10-08T12:38:43;18.50;73.50
70068;DHT22;57425;51.616;6.680;2023-10-08T12:41:12;18.50;73.50
70068;DHT22;57425;51.616;6.680;2023-10-08T12:43:39;18.50;73.50
70068;DHT22;57425;51.616;6.680;2023-10-08T12:46:08;18.50;73.50
70068;DHT22;57425;51.616;6.680;2023-10-08T12:48:39;18.50;73.50
70068;DHT22;57425;51.616;6.680;2023-10-08T12:51:05;18.50;73.50
70068;DHT22;57425;51.616;6.680;2023-10-08T12:53:32;18.50;73.50
70068;DHT22;57425;51.616;6.680;2023-10-08T12:56:07;18.50;73.50
70068;DHT22;57425;51.616;6.680;2023-10-08T12:58:40;18.50;73.50
70068;DHT22;57425;51.616;6.680;2023-10-08T13:01:19;18.50;73.50
70068;DHT22;57425;51.616;6.680;2023-10-08T13:03:45;18.50;73.50
70068;DHT22;57425;51.616;6.680;2023-10-08T13:06:19;18.50;73.60
70068;DHT22;57425;51.616;6.680;2023-10-08T13:08:48;18.50;73.60
70068;DHT22;57425;51.616;6.680;2023-10-08T13:11:14;18.50;73.50
70068;DHT22;57425;51.616;6.680;2023-10-08T13:13:40;18.50;73.60
70068;DHT22;57425;51.616;6.680;2023-10-08T13:16:06;18.50;73.60
70068;DHT22;57425;51.616;6.680;2023-10-08T13:18:35;18.50;73.60
70068;DHT22;57425;51.616;6.680;2023-10-08T13:21:03;18.50;73.60
70068;DHT22;57425;51.616;6.680;2023-10-08T13:23:29;18.50;73.60
70068;DHT22;57425;51.616;6.680;2023-10-08T13:25:55;18.50;73.60
70068;DHT22;57425;51.616;6.680;2023-10-08T13:28:21;18.50;73.60
70068;DHT22;57425;51.616;6.680;2023-10-08T13:30:50;18.60;73.60
70068;DHT22;57425;51.616;6.680;2023-10-08T13:33:22;18.50;73.60
70068;DHT22;57425;51.616;6.680;2023-10-08T13:35:50;18.50;73.60
70068;DHT22;57425;51.616;6.680;2023-10-08T13:38:19;18.50;73.60
70068;DHT22;57425;51.616;6.680;2023-10-08T13:40:51;18.50;73.60
70068;DHT22;57425;51.616;6.680;2023-10-08T13:43:32;18.50;73.60
70068;DHT22;57425;51.616;6.680;2023-10-08T13:48:32;18.50;73.60
70068;DHT22;57425;51.616;6.680;2023-10-08T13:51:00;18.50;73.60
70068;DHT22;57425;51.616;6.680;2023-10-08T13:53:27;18.50;73.60
70068;DHT22;57425;51.616;6.680;2023-10-08T13:55:57;18.60;73.60
70068;DHT22;57425;51.616;6.680;2023-10-08T13:58:24;18.50;73.60
70068;DHT22;57425;51.616;6.680;2023-10-08T14:00:49;18.60;73.70
70068;DHT22;57425;51.616;6.680;2023-10-08T14:03:18;18.60;73.70
70068;DHT22;57425;51.616;6.680;2023-10-08T14:05:47;18.60;73.70
70068;DHT22;57425;51.616;6.680;2023-10-08T14:08:20;18.60;73.60
70068;DHT22;57425;51.616;6.680;2023-10-08T14:10:47;18.60;73.60
70068;DHT22;57425;51.616;6.680;2023-10-08T14:13:15;18.60;73.60
70068;DHT22;57425;51.616;6.680;2023-10-08T14:15:46;18.60;73.60
70068;DHT22;57425;51.616;6.680;2023-10-08T14:18:14;18.60;73.60
70068;DHT22;57425;51.616;6.680;2023-10-08T14:20:44;18.60;73.60
70068;DHT22;57425;51.616;6.680;2023-10-08T14:23:13;18.60;73.60
70068;DHT22;57425;51.616;6.680;2023-10-08T14:25:42;18.60;73.60
70068;DHT22;57425;51.616;6.680;2023-10-08T14:28:11;18.60;73.60
70068;DHT22;57425;51.616;6.680;2023-10-08T14:30:51;18.60;73.60
70068;DHT22;57425;51.616;6.680;2023-10-08T14:33:21;18.60;73.60
70068;DHT22;57425;51.616;6.680;2023-10-08T14:35:52;18.60;73.60
70068;DHT22;57425;51.616;6.680;2023-10-08T14:38:37;18.60;73.60
70068;DHT22;57425;51.616;6.680;2023-10-08T14:41:20;18.60;73.60
70068;DHT22;57425;51.616;6.680;2023-10-08T14:44:05;18.60;73.60
70068;DHT22;57425;51.616;6.680;2023-10-08T14:46:32;18.60;73.60
70068;DHT22;57425;51.616;6.680;2023-10-08T14:48:58;18.60;73.60
70068;DHT22;57425;51.616;6.680;2023-10-08T14:51:24;18.60;73.60
70068;DHT22;57425;51.616;6.680;2023-10-08T14:53:50;18.60;73.60
70068;DHT22;57425;51.616;6.680;2023-10-08T14:56:16;18.60;73.60
70068;DHT22;57425;51.616;6.680;2023-10-08T14:58:44;18.60;73.60
70068;DHT22;57425;51.616;6.680;2023-10-08T15:01:09;18.60;73.60
70068;DHT22;57425;51.616;6.680;2023-10-08T15:03:39;18.60;73.60
70068;DHT22;57425;51.616;6.680;2023-10-08T15:06:04;18.60;73.60
70068;DHT22;57425;51.616;6.680;2023-10-08T15:08:32;18.60;73.60
70068;DHT22;57425;51.616;6.680;2023-10-08T15:10:58;18.60;73.60
70068;DHT22;57425;51.616;6.680;2023-10-08T15:13:24;18.60;73.60
70068;DHT22;57425;51.616;6.680;2023-10-08T15:15:51;18.60;73.60
70068;DHT22;57425;51.616;6.680;2023-10-08T15:18:16;18.60;73.60
70068;DHT22;57425;51.616;6.680;2023-10-08T15:20:44;18.60;73.60
70068;DHT22;57425;51.616;6.680;2023-10-08T15:23:10;18.60;73.60
70068;DHT22;57425;51.616;6.680;2023-10-08T15:25:39;18.60;73.60
70068;DHT22;57425;51.616;6.680;2023-10-08T15:28:05;18.60;73.60
70068;DHT22;57425;51.616;6.680;2023-10-08T15:30:31;18.60;73.60
70068;DHT22;57425;51.616;6.680;2023-10-08T15:32:58;18.60;73.50
70068;DHT22;57425;51.616;6.680;2023-10-08T15:35:24;18.60;73.50
70068;DHT22;57425;51.616;6.680;2023-10-08T15:37:50;18.60;73.50
70068;DHT22;57425;51.616;6.680;2023-10-08T15:40:16;18.60;73.50
70068;DHT22;57425;51.616;6.680;2023-10-08T15:42:50;18.60;73.50
70068;DHT22;57425;51.616;6.680;2023-10-08T15:45:23;18.60;73.60
70068;DHT22;57425;51.616;6.680;2023-10-08T15:47:50;18.60;73.60
70068;DHT22;57425;51.616;6.680;2023-10-08T15:50:15;18.60;74.10
70068;DHT22;57425;51.616;6.680;2023-10-08T15:52:42;18.60;73.60
70068;DHT22;57425;51.616;6.680;2023-10-08T15:55:08;18.60;73.50
70068;DHT22;57425;51.616;6.680;2023-10-08T15:57:36;18.60;73.50
70068;DHT22;57425;51.616;6.680;2023-10-08T16:00:02;18.60;73.50
70068;DHT22;57425;51.616;6.680;2023-10-08T16:02:28;18.60;73.60
70068;DHT22;57425;51.616;6.680;2023-10-08T16:04:55;18.60;73.50
70068;DHT22;57425;51.616;6.680;2023-10-08T16:07:21;18.60;73.50